Arkansas City, Kansas
Current Conditions -  °F | °C
As of 11:54 AM on Thursday 30 Oct 2014 (Local Time) from KWLD Reporting Station
Clear Clear  
Wind Chill: 69°   Ceiling: Unl
Heat Index: 69°   Visibility: 10mi
Dew Point: 40°   Wind: 18mph
Humidity: 35%   Direction: 10°N
Pressure: 30.14"   Gusts: 25mph
Location:  37.06°N, 97.04°W
Report Text: KWLD 301654Z AUTO 01016G22KT 10SM CLR 21/04 A3014 RMK AO2 SLP203 T02060044
Loading
Personal Weather Stations






























Interactive Weather Map
Tropical Storm Tracking
New forecast layout! Learn more

10-Day Weather Forecast

Advertisements
Track Severe Weather on mobile